createdAt,value
2019-03-17T00:02:14.921Z,73.10
2019-03-17T00:04:43.324Z,73.10
2019-03-17T00:07:11.775Z,73.70
2019-03-17T00:09:40.221Z,73.80
2019-03-17T00:12:27.949Z,74.40
2019-03-17T00:15:05.107Z,75.10
2019-03-17T00:17:26.523Z,75.40
2019-03-17T00:19:54.924Z,75.80
2019-03-17T00:22:23.329Z,76.00
2019-03-17T00:24:51.772Z,76.00
2019-03-17T00:27:20.156Z,76.00
2019-03-17T00:29:48.714Z,75.80
2019-03-17T00:32:17.109Z,75.70
2019-03-17T00:34:45.522Z,75.30
2019-03-17T00:37:13.922Z,74.60
2019-03-17T00:39:42.324Z,74.40
2019-03-17T00:42:10.771Z,74.40
2019-03-17T00:44:47.344Z,74.10
2019-03-17T00:47:20.982Z,74.00
2019-03-17T00:52:39.072Z,74.70
2019-03-17T00:55:07.704Z,74.50
2019-03-17T01:00:07.260Z,74.60
2019-03-17T01:02:35.661Z,73.80
2019-03-17T01:05:05.208Z,74.00
2019-03-17T01:07:33.642Z,74.10
2019-03-17T01:10:02.075Z,74.20
2019-03-17T01:12:30.514Z,74.40
2019-03-17T01:17:27.002Z,74.30
2019-03-17T01:19:55.460Z,74.30
2019-03-17T01:22:23.874Z,74.70
2019-03-17T01:24:52.267Z,74.90
2019-03-17T01:27:20.668Z,74.90
2019-03-17T01:32:17.487Z,75.20
2019-03-17T01:34:45.902Z,75.20
2019-03-17T01:39:42.408Z,74.60
2019-03-17T01:42:10.834Z,74.80
2019-03-17T01:44:39.249Z,75.10
2019-03-17T01:47:07.683Z,75.30
2019-03-17T01:49:36.208Z,75.60
2019-03-17T01:52:04.622Z,75.50
2019-03-17T01:54:33.029Z,75.40
2019-03-17T01:57:01.421Z,75.50
2019-03-17T01:59:49.167Z,75.50
2019-03-17T02:02:17.609Z,75.50
2019-03-17T02:07:14.109Z,75.40
2019-03-17T02:09:42.518Z,75.40
2019-03-17T02:12:10.916Z,75.70
2019-03-17T02:14:39.357Z,75.60
2019-03-17T02:17:07.745Z,75.90
2019-03-17T02:19:41.884Z,75.80
2019-03-17T02:22:10.292Z,75.90
2019-03-17T02:24:38.738Z,75.50
2019-03-17T02:27:07.129Z,75.20
2019-03-17T02:32:03.615Z,75.30
2019-03-17T02:34:32.014Z,75.50
2019-03-17T02:37:00.494Z,75.40
2019-03-17T02:39:28.934Z,75.70
2019-03-17T02:41:57.366Z,75.70
2019-03-17T02:44:25.777Z,75.50
2019-03-17T02:49:22.246Z,74.10
2019-03-17T02:51:50.683Z,73.90
2019-03-17T02:54:19.115Z,74.10
2019-03-17T02:56:47.512Z,74.10
2019-03-17T02:59:15.986Z,74.10
2019-03-17T03:01:44.467Z,74.20
2019-03-17T03:04:12.852Z,74.30
2019-03-17T03:06:41.262Z,74.40
2019-03-17T03:09:09.667Z,74.60
2019-03-17T03:11:38.292Z,74.60
2019-03-17T03:14:06.674Z,74.80
2019-03-17T03:16:35.082Z,74.50
2019-03-17T03:19:03.483Z,74.90
2019-03-17T03:21:31.999Z,74.50
2019-03-17T03:26:28.513Z,75.10
2019-03-17T03:31:25.036Z,75.20
2019-03-17T03:33:53.498Z,75.40
2019-03-17T03:36:21.950Z,75.30
2019-03-17T03:38:50.363Z,75.50
2019-03-17T03:41:18.778Z,74.80
2019-03-17T03:48:43.319Z,74.20
2019-03-17T03:51:11.765Z,74.00
2019-03-17T03:53:40.166Z,73.70
2019-03-17T03:58:55.973Z,72.90
2019-03-17T04:01:24.411Z,72.60
2019-03-17T04:06:26.951Z,73.10
2019-03-17T04:11:19.093Z,73.20
2019-03-17T04:16:15.682Z,73.90
2019-03-17T04:18:44.079Z,73.90
2019-03-17T04:21:12.497Z,74.30
2019-03-17T04:23:40.892Z,74.10
2019-03-17T04:26:09.306Z,74.60
2019-03-17T04:28:37.707Z,74.70
2019-03-17T04:31:06.111Z,74.70
2019-03-17T04:33:34.502Z,74.50
2019-03-17T04:36:02.905Z,74.80
2019-03-17T04:40:59.450Z,74.70
2019-03-17T04:43:27.894Z,75.10
2019-03-17T04:45:56.341Z,74.80
2019-03-17T04:48:24.818Z,74.90
2019-03-17T04:50:53.226Z,75.40
2019-03-17T04:53:21.625Z,75.50
2019-03-17T04:55:50.034Z,75.50
2019-03-17T04:58:18.463Z,75.40
2019-03-17T05:00:46.904Z,75.10
2019-03-17T05:03:15.331Z,75.10
2019-03-17T05:05:43.713Z,74.00
2019-03-17T05:08:12.112Z,73.90
2019-03-17T05:10:40.504Z,74.00
2019-03-17T05:13:08.921Z,74.30
2019-03-17T05:15:37.307Z,74.00
2019-03-17T05:18:25.052Z,74.10
2019-03-17T05:20:53.480Z,74.00
2019-03-17T05:23:21.872Z,73.80
2019-03-17T05:25:50.269Z,73.80
2019-03-17T05:28:18.668Z,73.70
2019-03-17T05:30:47.065Z,73.10
2019-03-17T05:33:15.485Z,72.90
2019-03-17T05:35:43.888Z,72.30
2019-03-17T05:38:12.290Z,72.50
2019-03-17T05:40:40.688Z,71.60
2019-03-17T05:43:09.211Z,71.00
2019-03-17T05:45:37.647Z,70.10
2019-03-17T05:48:06.044Z,69.20
2019-03-17T05:50:34.445Z,68.90
2019-03-17T05:53:02.844Z,67.80
2019-03-17T05:55:31.323Z,67.00
2019-03-17T05:57:59.732Z,66.60
2019-03-17T06:00:28.137Z,66.00
2019-03-17T06:02:56.545Z,65.50
2019-03-17T06:05:24.943Z,65.30
2019-03-17T06:07:53.352Z,64.80
2019-03-17T06:10:21.756Z,64.80
2019-03-17T06:15:18.273Z,64.30
2019-03-17T06:17:46.687Z,64.20
2019-03-17T06:20:15.168Z,64.10
2019-03-17T06:22:43.569Z,64.20
2019-03-17T06:25:12.029Z,64.10
2019-03-17T06:27:40.440Z,63.80
2019-03-17T06:30:13.519Z,63.80
2019-03-17T06:32:42.025Z,63.80
2019-03-17T06:35:10.531Z,63.30
2019-03-17T06:37:38.975Z,63.50
2019-03-17T06:40:10.545Z,63.50
2019-03-17T06:42:38.965Z,63.00
2019-03-17T06:45:09.501Z,62.60
2019-03-17T06:47:37.902Z,62.30
2019-03-17T06:50:12.168Z,61.70
2019-03-17T06:52:40.560Z,61.70
2019-03-17T06:55:11.309Z,61.20
2019-03-17T06:57:39.709Z,61.50
2019-03-17T07:00:10.622Z,61.20
2019-03-17T07:02:39.017Z,60.80
2019-03-17T07:05:08.902Z,60.90
2019-03-17T07:07:43.884Z,60.40
2019-03-17T07:10:10.762Z,59.40
2019-03-17T07:17:43.385Z,59.50
2019-03-17T07:20:13.450Z,60.10
2019-03-17T07:22:43.137Z,59.00
2019-03-17T07:25:11.603Z,58.90
2019-03-17T07:27:40.002Z,59.20
2019-03-17T07:30:11.824Z,58.50
2019-03-17T07:32:40.260Z,58.60
2019-03-17T07:35:08.762Z,58.10
2019-03-17T07:37:37.270Z,58.30
2019-03-17T07:40:08.839Z,57.30
2019-03-17T07:42:37.270Z,57.20
2019-03-17T07:45:08.222Z,57.40
2019-03-17T07:47:36.620Z,57.00
2019-03-17T07:50:10.826Z,56.20
2019-03-17T07:52:39.212Z,55.70
2019-03-17T07:55:09.411Z,56.10
2019-03-17T07:57:37.839Z,54.50
2019-03-17T08:00:13.099Z,54.90
2019-03-17T08:02:41.505Z,54.90
2019-03-17T08:05:10.515Z,55.90
2019-03-17T08:10:12.104Z,55.10
2019-03-17T08:12:40.520Z,54.90
2019-03-17T08:15:11.874Z,54.70
2019-03-17T08:17:40.269Z,54.70
2019-03-17T08:20:10.567Z,53.90
2019-03-17T08:22:38.967Z,52.50
2019-03-17T08:25:08.956Z,52.60
2019-03-17T08:30:13.865Z,51.30
2019-03-17T08:35:10.688Z,52.70
2019-03-17T08:37:39.163Z,52.60
2019-03-17T08:40:10.780Z,52.90
2019-03-17T08:42:39.216Z,51.70
2019-03-17T08:47:37.109Z,49.70
2019-03-17T08:50:08.326Z,50.40
2019-03-17T08:52:36.764Z,49.80
2019-03-17T08:55:06.626Z,49.70
2019-03-17T08:57:35.066Z,49.30
2019-03-17T09:00:05.037Z,49.70
2019-03-17T09:02:33.432Z,50.20
2019-03-17T09:05:01.861Z,49.80
2019-03-17T09:07:30.244Z,50.60
2019-03-17T09:09:58.656Z,50.40
2019-03-17T09:12:27.057Z,49.80
2019-03-17T09:14:55.463Z,49.80
2019-03-17T09:17:23.909Z,49.80
2019-03-17T09:22:20.418Z,48.80
2019-03-17T09:24:48.836Z,48.90
2019-03-17T09:27:17.245Z,47.10
2019-03-17T09:29:45.650Z,47.90
2019-03-17T09:34:42.242Z,47.80
2019-03-17T09:37:10.694Z,47.80
2019-03-17T09:39:39.092Z,47.20
2019-03-17T09:42:07.540Z,47.00
2019-03-17T09:44:35.941Z,47.20
2019-03-17T09:47:04.788Z,47.40
2019-03-17T09:49:33.266Z,46.50
2019-03-17T09:54:29.844Z,45.80
2019-03-17T09:56:58.295Z,45.80
2019-03-17T09:59:26.739Z,46.30
2019-03-17T10:04:23.211Z,44.60
2019-03-17T10:06:51.676Z,44.40
2019-03-17T10:11:49.688Z,44.00
2019-03-17T10:16:46.180Z,43.50
2019-03-17T10:19:14.587Z,42.80
2019-03-17T10:21:43.001Z,43.20
2019-03-17T10:24:11.447Z,43.30
2019-03-17T10:26:39.849Z,43.30
2019-03-17T10:29:08.245Z,43.20
2019-03-17T10:31:36.719Z,43.30
2019-03-17T10:36:33.196Z,43.50
2019-03-17T10:39:12.061Z,44.00
2019-03-17T10:41:31.743Z,44.00
2019-03-17T10:44:00.141Z,43.30
2019-03-17T10:46:28.660Z,43.20
2019-03-17T10:48:57.064Z,44.10
2019-03-17T10:53:53.549Z,43.50
2019-03-17T10:56:21.960Z,43.70
2019-03-17T11:01:19.482Z,43.20
2019-03-17T11:03:47.926Z,43.50
2019-03-17T11:13:40.820Z,45.50
2019-03-17T11:16:09.248Z,45.70
2019-03-17T11:21:05.817Z,45.90
2019-03-17T11:23:34.225Z,46.90
2019-03-17T11:26:02.624Z,47.30
2019-03-17T11:28:31.035Z,46.50
2019-03-17T11:30:59.714Z,46.50
2019-03-17T11:33:28.125Z,47.00
2019-03-17T11:35:56.516Z,46.90
2019-03-17T11:38:24.996Z,46.50
2019-03-17T11:40:53.606Z,47.20
2019-03-17T11:43:22.012Z,47.50
2019-03-17T11:45:50.455Z,47.50
2019-03-17T11:48:18.860Z,47.50
2019-03-17T11:50:47.260Z,47.40
2019-03-17T11:53:15.680Z,46.70
2019-03-17T11:55:44.082Z,47.00
2019-03-17T11:58:12.523Z,47.10
2019-03-17T12:00:40.965Z,47.00
2019-03-17T12:03:09.409Z,46.70
2019-03-17T12:10:33.948Z,47.40
2019-03-17T12:15:35.018Z,47.60
2019-03-17T12:18:03.413Z,48.00
2019-03-17T12:25:28.067Z,47.90
2019-03-17T12:27:56.510Z,48.40
2019-03-17T12:35:22.442Z,48.90
2019-03-17T12:37:50.948Z,48.30
2019-03-17T12:40:19.621Z,48.80
2019-03-17T12:42:48.067Z,48.70
2019-03-17T12:47:44.537Z,48.80
2019-03-17T12:50:15.759Z,48.10
2019-03-17T12:52:44.168Z,48.40
2019-03-17T12:55:12.608Z,48.40
2019-03-17T12:57:41.013Z,48.80
2019-03-17T13:00:20.354Z,48.80
2019-03-17T13:02:48.790Z,48.20
2019-03-17T13:05:17.187Z,48.30
2019-03-17T13:07:45.605Z,49.00
2019-03-17T13:10:16.571Z,48.50
2019-03-17T13:12:45.328Z,49.20
2019-03-17T13:15:13.809Z,48.90
2019-03-17T13:17:42.264Z,49.20
2019-03-17T13:20:18.556Z,48.80
2019-03-17T13:22:47.001Z,48.50
2019-03-17T13:25:15.421Z,49.10
2019-03-17T13:27:43.887Z,48.70
2019-03-17T13:32:45.038Z,49.50
2019-03-17T13:35:13.476Z,48.90
2019-03-17T13:37:41.986Z,48.70
2019-03-17T13:40:28.759Z,48.80
2019-03-17T13:42:50.139Z,48.70
2019-03-17T13:47:46.614Z,49.10
2019-03-17T13:50:17.129Z,49.70
2019-03-17T13:52:45.540Z,49.70
2019-03-17T13:55:13.978Z,49.60
2019-03-17T13:58:03.488Z,50.00
2019-03-17T14:00:31.876Z,49.70
2019-03-17T14:03:00.284Z,49.90
2019-03-17T14:05:28.680Z,50.10
2019-03-17T14:07:57.163Z,50.10
2019-03-17T14:10:25.560Z,50.70
2019-03-17T14:12:53.967Z,50.80
2019-03-17T14:15:22.415Z,51.00
2019-03-17T14:17:50.812Z,50.70
2019-03-17T14:20:20.995Z,50.60
2019-03-17T14:22:49.846Z,51.20
2019-03-17T14:25:26.965Z,51.50
2019-03-17T14:27:55.486Z,51.80
2019-03-17T14:30:23.998Z,51.50
2019-03-17T14:32:52.400Z,51.40
2019-03-17T14:35:21.734Z,51.40
2019-03-17T14:42:48.356Z,51.60
2019-03-17T14:45:17.838Z,51.60
2019-03-17T14:47:46.353Z,52.10
2019-03-17T14:50:19.109Z,51.90
2019-03-17T14:52:47.514Z,51.70
2019-03-17T14:55:16.005Z,51.80
2019-03-17T14:57:44.421Z,52.40
2019-03-17T15:00:17.278Z,52.30
2019-03-17T15:05:14.297Z,53.20
2019-03-17T15:07:42.688Z,53.30
2019-03-17T15:10:16.528Z,53.40
2019-03-17T15:12:44.942Z,54.20
2019-03-17T15:15:15.187Z,54.70
2019-03-17T15:17:43.576Z,54.40
2019-03-17T15:20:16.851Z,54.50
2019-03-17T15:22:45.349Z,54.80
2019-03-17T15:25:13.865Z,54.70
2019-03-17T15:27:42.275Z,55.00
2019-03-17T15:30:27.339Z,55.30
2019-03-17T15:32:55.807Z,55.80
2019-03-17T15:37:52.296Z,56.00
2019-03-17T15:40:21.745Z,55.80
2019-03-17T15:42:50.280Z,56.00
2019-03-17T15:45:22.499Z,56.40
2019-03-17T15:47:50.896Z,56.50
2019-03-17T15:50:26.627Z,56.70
2019-03-17T15:52:55.273Z,57.00
2019-03-17T15:55:23.764Z,57.20
2019-03-17T15:57:52.156Z,57.00
2019-03-17T16:00:25.974Z,57.40
2019-03-17T16:02:54.140Z,57.20
2019-03-17T16:05:22.569Z,57.20
2019-03-17T16:07:50.978Z,57.30
2019-03-17T16:10:26.286Z,57.40
2019-03-17T16:15:22.828Z,57.90
2019-03-17T16:17:51.217Z,58.20
2019-03-17T16:20:23.518Z,58.10
2019-03-17T16:22:51.908Z,58.50
2019-03-17T16:25:24.959Z,58.50
2019-03-17T16:27:53.414Z,58.50
2019-03-17T16:30:26.803Z,58.70
2019-03-17T16:32:55.227Z,58.90
2019-03-17T16:35:23.689Z,59.10
2019-03-17T16:40:24.850Z,59.50
2019-03-17T16:42:53.972Z,59.60
2019-03-17T16:45:22.842Z,59.90
2019-03-17T16:47:51.244Z,60.00
2019-03-17T16:50:23.379Z,59.80
2019-03-17T16:55:19.936Z,60.50
2019-03-17T16:57:48.375Z,60.40
2019-03-17T17:02:48.726Z,62.60
2019-03-17T17:05:19.445Z,64.80
2019-03-17T17:07:47.852Z,65.60
2019-03-17T17:10:18.032Z,67.10
2019-03-17T17:12:47.303Z,68.00
2019-03-17T17:15:17.877Z,68.60
2019-03-17T17:17:46.276Z,70.00
2019-03-17T17:20:23.135Z,70.80
2019-03-17T17:22:51.739Z,71.50
2019-03-17T17:25:20.170Z,71.50
2019-03-17T17:27:48.583Z,72.00
2019-03-17T17:30:19.984Z,72.70
2019-03-17T17:32:48.394Z,73.70
2019-03-17T17:35:16.824Z,74.40
2019-03-17T17:37:45.221Z,75.40
2019-03-17T17:40:21.309Z,75.90
2019-03-17T17:42:49.845Z,77.00
2019-03-17T17:45:20.089Z,77.30
2019-03-17T17:50:18.207Z,77.50
2019-03-17T17:52:49.731Z,77.30
2019-03-17T17:55:18.145Z,77.60
2019-03-17T18:00:27.624Z,78.40
2019-03-17T18:07:53.918Z,79.20
2019-03-17T18:10:22.378Z,79.70
2019-03-17T18:12:50.766Z,79.60
2019-03-17T18:15:32.908Z,79.70
2019-03-17T18:18:04.835Z,79.50
2019-03-17T18:20:37.812Z,79.50
2019-03-17T18:23:17.431Z,79.70
2019-03-17T18:25:38.418Z,79.90
2019-03-17T18:28:06.850Z,79.90
2019-03-17T18:30:35.347Z,79.80
2019-03-17T18:33:03.785Z,80.00
2019-03-17T18:35:32.238Z,80.60
2019-03-17T18:38:00.634Z,80.90
2019-03-17T18:40:29.040Z,81.30
2019-03-17T18:42:57.442Z,80.90
2019-03-17T18:45:28.160Z,81.30
2019-03-17T18:47:57.755Z,81.40
2019-03-17T18:50:26.848Z,81.60
2019-03-17T18:52:55.288Z,81.40
2019-03-17T18:55:23.682Z,81.30
2019-03-17T18:57:52.082Z,81.50
2019-03-17T19:05:19.876Z,81.70
2019-03-17T19:07:51.002Z,81.40
2019-03-17T19:12:48.509Z,81.40
2019-03-17T19:15:19.126Z,81.50
2019-03-17T19:22:44.171Z,81.60
2019-03-17T19:25:15.185Z,81.50
2019-03-17T19:27:43.581Z,81.80
2019-03-17T19:30:19.890Z,81.80
2019-03-17T19:32:48.351Z,81.60
2019-03-17T19:35:17.203Z,81.60
2019-03-17T19:37:45.642Z,81.70
2019-03-17T19:40:17.154Z,81.60
2019-03-17T19:42:57.459Z,81.90
2019-03-17T19:47:43.776Z,82.10
2019-03-17T19:50:17.061Z,82.40
2019-03-17T19:52:45.454Z,82.40
2019-03-17T19:55:33.200Z,82.50
2019-03-17T19:58:01.601Z,82.50
2019-03-17T20:00:30.003Z,82.60
2019-03-17T20:02:58.400Z,82.80
2019-03-17T20:05:46.153Z,82.60
2019-03-17T20:08:14.593Z,82.50
2019-03-17T20:10:43.125Z,82.60
2019-03-17T20:13:12.270Z,82.70
2019-03-17T20:15:40.904Z,82.60
2019-03-17T20:18:09.319Z,82.40
2019-03-17T20:23:05.789Z,82.40
2019-03-17T20:25:34.236Z,82.60
2019-03-17T20:28:02.670Z,82.80
2019-03-17T20:32:59.149Z,82.70
2019-03-17T20:35:27.577Z,82.60
2019-03-17T20:37:55.963Z,82.50
2019-03-17T20:42:52.474Z,83.10
2019-03-17T20:45:20.914Z,83.20
2019-03-17T20:47:49.360Z,83.30
2019-03-17T20:50:18.806Z,83.40
2019-03-17T20:55:15.410Z,83.30
2019-03-17T20:57:43.791Z,83.40
2019-03-17T21:00:16.448Z,83.50
2019-03-17T21:02:45.030Z,83.50
2019-03-17T21:05:13.519Z,83.70
2019-03-17T21:07:42.350Z,83.80
2019-03-17T21:17:57.761Z,84.40
2019-03-17T21:22:54.293Z,84.10
2019-03-17T21:25:22.717Z,84.30
2019-03-17T21:30:22.271Z,84.20
2019-03-17T21:37:46.829Z,84.10
2019-03-17T21:40:15.338Z,84.20
2019-03-17T21:42:43.847Z,84.30
2019-03-17T21:45:13.784Z,84.20
2019-03-17T21:47:42.195Z,84.00
2019-03-17T21:55:09.809Z,83.90
2019-03-17T21:57:38.277Z,83.90
2019-03-17T22:00:15.304Z,83.70
2019-03-17T22:02:43.708Z,83.80
2019-03-17T22:05:13.568Z,84.00
2019-03-17T22:10:29.421Z,83.90
2019-03-17T22:12:57.846Z,84.00
2019-03-17T22:17:54.375Z,84.40
2019-03-17T22:20:22.793Z,84.10
2019-03-17T22:22:51.217Z,84.20
2019-03-17T22:25:19.608Z,84.20
2019-03-17T22:27:48.052Z,84.10
2019-03-17T22:30:17.815Z,84.40
2019-03-17T22:32:46.284Z,84.20
2019-03-17T22:35:14.723Z,84.40
2019-03-17T22:37:43.127Z,84.40
2019-03-17T22:40:16.572Z,84.20
2019-03-17T22:42:45.012Z,84.40
2019-03-17T22:45:14.539Z,84.50
2019-03-17T22:47:42.940Z,84.50
2019-03-17T22:50:13.740Z,84.40
2019-03-17T22:52:42.153Z,84.10
2019-03-17T22:55:10.884Z,84.10
2019-03-17T22:57:39.296Z,84.40
2019-03-17T23:00:10.764Z,84.20
2019-03-17T23:02:39.203Z,84.50
2019-03-17T23:05:08.568Z,84.40
2019-03-17T23:10:11.035Z,84.50
2019-03-17T23:12:39.487Z,84.40
2019-03-17T23:15:10.691Z,84.70
2019-03-17T23:20:13.013Z,84.40
2019-03-17T23:22:41.437Z,84.10
2019-03-17T23:25:10.794Z,84.00
2019-03-17T23:27:39.200Z,83.50
2019-03-17T23:30:21.568Z,83.30
2019-03-17T23:32:49.978Z,83.00
2019-03-17T23:37:46.450Z,83.70
2019-03-17T23:40:16.123Z,84.00
2019-03-17T23:42:44.528Z,84.30
2019-03-17T23:45:12.982Z,84.30
2019-03-17T23:47:41.394Z,84.20
2019-03-17T23:50:16.298Z,84.20
2019-03-17T23:52:44.738Z,84.30
